Time;durP1;ratioP1;P1;durP2;ratioP2;P2;SDS_P1;SDS_P2;PMS_P1;PMS_P2;Temp;Humidity;BMP_temperature;BMP_pressure;BME280_temperature;BME280_humidity;BME280_pressure;Samples;Min_cycle;Max_cycle;Signal;HPM_P1;HPM_P2
2023/06/04 00:00:39;;;;;;;;;;;;;;;20.45;33.03;101351.78;5040974;28;19952;-67
2023/06/04 00:03:04;;;;;;;;;;;;;;;20.37;33.36;101352.13;5032389;28;19923;-67
2023/06/04 00:05:30;;;;;;;;;;;;;;;20.31;33.56;101353.06;5032987;28;20350;-67
2023/06/04 00:07:55;;;;;;;;;;;;;;;20.20;32.56;101357.44;5035606;28;19917;-67
2023/06/04 00:10:20;;;;;;;;;;;;;;;20.20;33.37;101359.34;5052438;28;20269;-67
2023/06/04 00:12:45;;;;;;;;;;;;;;;20.31;32.80;101353.91;5049875;28;19964;-67
2023/06/04 00:15:11;;;;;;;;;;;;;;;20.40;33.63;101362.56;5040844;28;19913;-67
2023/06/04 00:17:36;;;;;;;;;;;;;;;20.48;33.33;101355.91;5047474;28;19963;-67
2023/06/04 00:20:02;;;;;;;;;;;;;;;20.48;32.42;101348.56;5034563;28;20419;-67
2023/06/04 00:22:27;;;;;;;;;;;;;;;20.38;33.05;101352.97;5052361;28;19917;-67
2023/06/04 00:24:52;;;;;;;;;;;;;;;20.27;33.32;101355.44;5052664;28;19912;-67
2023/06/04 00:27:17;;;;;;;;;;;;;;;20.25;33.87;101367.66;5052368;28;19988;-67
2023/06/04 00:29:43;;;;;;;;;;;;;;;20.29;33.75;101363.41;5034600;28;20300;-67
2023/06/04 00:32:08;;;;;;;;;;;;;;;20.36;33.64;101358.66;5034711;28;19916;-65
2023/06/04 00:34:33;;;;;;;;;;;;;;;20.33;33.62;101363.75;5052459;28;19935;-65
2023/06/04 00:37:01;;;;;;;;;;;;;;;20.24;33.99;101369.53;5052265;28;19913;-65
2023/06/04 00:39:26;;;;;;;;;;;;;;;20.21;34.60;101363.75;5052744;28;19971;-65
2023/06/04 00:41:51;;;;;;;;;;;;;;;20.14;33.67;101368.50;5052355;28;20264;-65
2023/06/04 00:44:17;;;;;;;;;;;;;;;20.05;33.82;101371.53;5052772;28;19919;-65
2023/06/04 00:46:45;;;;;;;;;;;;;;;19.97;32.96;101371.91;5052630;28;20393;-65
2023/06/04 00:49:12;;;;;;;;;;;;;;;19.94;32.53;101366.06;5052280;28;19924;-65
2023/06/04 00:51:37;;;;;;;;;;;;;;;19.99;33.19;101377.94;5052389;28;19913;-65
2023/06/04 00:54:08;;;;;;;;;;;;;;;20.02;33.33;101376.63;5052212;28;20328;-65
2023/06/04 00:56:34;;;;;;;;;;;;;;;20.02;33.41;101373.91;5052330;28;19995;-65
2023/06/04 00:59:00;;;;;;;;;;;;;;;19.97;33.40;101381.97;5052015;28;20379;-65
2023/06/04 01:01:28;;;;;;;;;;;;;;;20.01;33.13;101383.16;5051156;28;19920;-65
2023/06/04 01:03:55;;;;;;;;;;;;;;;19.95;33.09;101381.34;5052073;28;19913;-65
2023/06/04 01:06:23;;;;;;;;;;;;;;;19.86;33.03;101392.59;5052266;28;20016;-65
2023/06/04 01:08:49;;;;;;;;;;;;;;;19.89;33.24;101394.88;5056153;28;19919;-65
2023/06/04 01:11:14;;;;;;;;;;;;;;;19.86;32.61;101391.78;5072334;28;20438;-65
2023/06/04 01:13:40;;;;;;;;;;;;;;;19.84;32.63;101397.47;5071972;28;19942;-64
2023/06/04 01:16:05;;;;;;;;;;;;;;;19.83;32.52;101403.97;5071599;28;19920;-65
2023/06/04 01:18:36;;;;;;;;;;;;;;;19.76;33.47;101405.13;5051960;28;19920;-65
2023/06/04 01:21:03;;;;;;;;;;;;;;;19.77;33.95;101409.53;5051964;28;19913;-65
2023/06/04 01:23:34;;;;;;;;;;;;;;;19.79;33.92;101413.69;5053700;28;19920;-65
2023/06/04 01:26:02;;;;;;;;;;;;;;;19.66;34.45;101411.94;5055656;28;19916;-65
2023/06/04 01:28:29;;;;;;;;;;;;;;;19.51;34.29;101416.97;5055740;28;19954;-65
2023/06/04 01:30:56;;;;;;;;;;;;;;;19.48;34.33;101417.44;5055465;28;19913;-65
2023/06/04 01:33:22;;;;;;;;;;;;;;;19.46;33.88;101425.00;5055482;28;20035;-65
2023/06/04 01:35:48;;;;;;;;;;;;;;;19.48;34.06;101425.59;5055292;28;19959;-65
2023/06/04 01:38:13;;;;;;;;;;;;;;;19.46;33.27;101425.81;5055466;28;19920;-65
2023/06/04 01:40:38;;;;;;;;;;;;;;;19.42;34.67;101424.63;5055406;28;19916;-65
2023/06/04 01:43:04;;;;;;;;;;;;;;;19.40;33.12;101426.75;5055327;28;19931;-65
2023/06/04 01:45:30;;;;;;;;;;;;;;;19.42;32.98;101421.91;5055327;28;20023;-65
2023/06/04 01:47:56;;;;;;;;;;;;;;;19.40;33.05;101415.03;5055263;28;19912;-65
2023/06/04 01:50:21;;;;;;;;;;;;;;;19.36;32.68;101422.00;5055396;28;20457;-65
2023/06/04 01:52:47;;;;;;;;;;;;;;;19.33;31.96;101421.41;5054674;28;19923;-65
2023/06/04 01:55:13;;;;;;;;;;;;;;;19.30;31.47;101419.13;5054716;28;20285;-65
2023/06/04 01:57:38;;;;;;;;;;;;;;;19.25;31.33;101421.69;5055023;28;19913;-65
2023/06/04 02:00:08;;;;;;;;;;;;;;;19.24;31.42;101419.19;5055342;28;19952;-65
2023/06/04 02:02:33;;;;;;;;;;;;;;;19.27;31.21;101425.00;5054062;28;19917;-64
2023/06/04 02:04:58;;;;;;;;;;;;;;;19.31;30.93;101423.50;5055169;28;20379;-64
2023/06/04 02:07:25;;;;;;;;;;;;;;;19.29;30.72;101417.44;5055062;28;19912;-64
2023/06/04 02:09:51;;;;;;;;;;;;;;;19.31;30.12;101418.03;5067911;28;19913;-64
2023/06/04 02:12:16;;;;;;;;;;;;;;;19.30;29.51;101426.47;5074870;28;20323;-65
2023/06/04 02:14:42;;;;;;;;;;;;;;;19.33;29.17;101424.13;5074834;28;20322;-64
2023/06/04 02:17:12;;;;;;;;;;;;;;;19.34;28.90;101417.59;5074894;28;20385;-64
2023/06/04 02:19:39;;;;;;;;;;;;;;;19.38;28.75;101425.31;5074667;28;19912;-64
2023/06/04 02:22:05;;;;;;;;;;;;;;;19.33;28.59;101426.00;5074477;28;19916;-64
2023/06/04 02:24:30;;;;;;;;;;;;;;;19.39;28.41;101429.69;5066565;28;20041;-65
2023/06/04 02:26:55;;;;;;;;;;;;;;;19.49;28.16;101427.28;5054355;28;20459;-65
2023/06/04 02:29:21;;;;;;;;;;;;;;;19.43;27.85;101442.66;5054820;28;19913;-65
2023/06/04 02:31:46;;;;;;;;;;;;;;;19.49;27.88;101438.19;5054278;28;19970;-64
2023/06/04 02:34:11;;;;;;;;;;;;;;;19.51;27.47;101442.31;5052685;28;19943;-64
2023/06/04 02:36:37;;;;;;;;;;;;;;;19.48;27.86;101448.25;5053489;28;19913;-64
2023/06/04 02:39:03;;;;;;;;;;;;;;;19.56;27.55;101457.16;5054078;28;19913;-64
2023/06/04 02:41:28;;;;;;;;;;;;;;;19.50;27.37;101457.03;5053958;28;19913;-64
2023/06/04 02:43:53;;;;;;;;;;;;;;;19.54;27.40;101469.13;5053739;28;19913;-64
2023/06/04 02:46:18;;;;;;;;;;;;;;;19.58;27.31;101461.31;5053735;28;19962;-64
2023/06/04 02:48:44;;;;;;;;;;;;;;;19.57;27.26;101469.72;5053960;28;19923;-64
2023/06/04 02:51:10;;;;;;;;;;;;;;;19.56;27.29;101470.78;5053892;28;19955;-64
2023/06/04 02:53:36;;;;;;;;;;;;;;;19.59;27.17;101462.16;5054140;28;19913;-64
2023/06/04 02:56:01;;;;;;;;;;;;;;;19.61;27.28;101479.09;5054342;28;20390;-64
2023/06/04 02:58:28;;;;;;;;;;;;;;;19.68;26.75;101475.22;5035863;28;19943;-64
2023/06/04 03:00:54;;;;;;;;;;;;;;;19.66;26.84;101479.25;5053225;28;19913;-64
2023/06/04 03:03:20;;;;;;;;;;;;;;;19.72;26.89;101481.03;5035938;28;19917;-64
2023/06/04 03:05:47;;;;;;;;;;;;;;;19.72;26.97;101491.94;5053511;28;19936;-65
2023/06/04 03:08:14;;;;;;;;;;;;;;;19.66;27.08;101482.78;5053734;28;19913;-65
2023/06/04 03:10:40;;;;;;;;;;;;;;;19.70;27.02;101489.44;5055775;28;19921;-64
2023/06/04 03:13:05;;;;;;;;;;;;;;;19.66;26.90;101482.78;5053703;28;19916;-65
2023/06/04 03:15:30;;;;;;;;;;;;;;;19.70;26.88;101488.63;5053409;28;20011;-64
2023/06/04 03:17:56;;;;;;;;;;;;;;;19.65;27.04;101502.94;5053623;28;19912;-65
2023/06/04 03:20:23;;;;;;;;;;;;;;;19.67;26.87;101508.19;5053433;28;20370;-65
2023/06/04 03:22:49;;;;;;;;;;;;;;;19.69;26.90;101512.34;5053782;28;20012;-64
2023/06/04 03:25:14;;;;;;;;;;;;;;;19.71;26.73;101512.94;5053635;28;19948;-65
2023/06/04 03:27:40;;;;;;;;;;;;;;;19.73;26.67;101508.09;5053180;28;20432;-65
2023/06/04 03:30:05;;;;;;;;;;;;;;;19.81;26.48;101519.75;5053478;28;19913;-65
2023/06/04 03:32:31;;;;;;;;;;;;;;;19.76;26.72;101511.44;5035439;28;20357;-65
2023/06/04 03:34:56;;;;;;;;;;;;;;;19.80;26.67;101524.41;5053447;28;19919;-65
2023/06/04 03:37:21;;;;;;;;;;;;;;;19.83;26.56;101523.09;5053293;28;20388;-65
2023/06/04 03:39:46;;;;;;;;;;;;;;;19.81;26.79;101520.59;5053368;28;19913;-65
2023/06/04 03:42:12;;;;;;;;;;;;;;;19.82;26.33;101518.72;5052997;28;19924;-64
2023/06/04 03:44:37;;;;;;;;;;;;;;;19.75;26.55;101526.16;5053349;28;19919;-64
2023/06/04 03:47:02;;;;;;;;;;;;;;;19.83;26.49;101523.91;5052829;28;19913;-64
2023/06/04 03:49:28;;;;;;;;;;;;;;;19.80;26.41;101527.13;5053332;28;19989;-65
2023/06/04 03:51:53;;;;;;;;;;;;;;;19.81;26.44;101523.31;5052879;28;20443;-64
2023/06/04 03:54:18;;;;;;;;;;;;;;;19.89;26.34;101520.28;5052922;28;20362;-64
2023/06/04 03:56:45;;;;;;;;;;;;;;;19.94;26.21;101519.59;5052847;28;19921;-64
2023/06/04 03:59:10;;;;;;;;;;;;;;;19.94;26.23;101525.03;5052735;28;20035;-64
2023/06/04 04:01:39;;;;;;;;;;;;;;;19.91;26.12;101539.16;5051835;28;19913;-64
2023/06/04 04:04:04;;;;;;;;;;;;;;;19.94;26.21;101538.66;5052782;28;19913;-64
2023/06/04 04:06:30;;;;;;;;;;;;;;;19.91;26.10;101539.97;5052615;28;19921;-64
2023/06/04 04:08:55;;;;;;;;;;;;;;;20.03;26.04;101539.19;5057825;28;19912;-65
2023/06/04 04:11:24;;;;;;;;;;;;;;;20.01;25.90;101539.41;5072732;28;19912;-65
2023/06/04 04:13:49;;;;;;;;;;;;;;;20.03;25.75;101539.19;5072834;28;19913;-65
2023/06/04 04:16:14;;;;;;;;;;;;;;;20.03;25.76;101550.09;5072613;28;19978;-65
2023/06/04 04:18:41;;;;;;;;;;;;;;;20.07;25.73;101552.13;5072745;28;20387;-65
2023/06/04 04:21:06;;;;;;;;;;;;;;;20.14;25.63;101557.50;5072526;28;19991;-65
2023/06/04 04:23:32;;;;;;;;;;;;;;;20.15;25.61;101553.72;5054401;28;20460;-65
2023/06/04 04:26:02;;;;;;;;;;;;;;;20.16;25.58;101557.28;5034764;28;19920;-65
2023/06/04 04:28:28;;;;;;;;;;;;;;;20.24;25.48;101565.94;5052374;28;19999;-65
2023/06/04 04:30:56;;;;;;;;;;;;;;;20.26;25.36;101569.31;5052345;28;20303;-64
2023/06/04 04:33:24;;;;;;;;;;;;;;;20.25;25.46;101566.81;5052511;28;20245;-64
2023/06/04 04:35:50;;;;;;;;;;;;;;;20.27;25.52;101572.84;5052565;28;19966;-64
2023/06/04 04:38:17;;;;;;;;;;;;;;;20.20;25.41;101569.38;5052220;28;19916;-64
2023/06/04 04:40:42;;;;;;;;;;;;;;;20.21;25.47;101584.69;5052366;28;20007;-64
2023/06/04 04:43:07;;;;;;;;;;;;;;;20.29;25.58;101577.00;5052178;28;20575;-64
2023/06/04 04:45:32;;;;;;;;;;;;;;;20.29;25.43;101576.19;5052166;28;19913;-65
2023/06/04 04:47:58;;;;;;;;;;;;;;;20.32;25.64;101578.47;5052153;28;19962;-65
2023/06/04 04:50:23;;;;;;;;;;;;;;;20.30;25.38;101583.31;5052333;28;19920;-64
2023/06/04 04:52:48;;;;;;;;;;;;;;;20.35;25.44;101586.16;5052003;28;19921;-64
2023/06/04 04:55:13;;;;;;;;;;;;;;;20.35;25.38;101579.88;5052271;28;20029;-64
2023/06/04 04:57:39;;;;;;;;;;;;;;;20.42;25.25;101586.91;5052310;28;20369;-64
2023/06/04 05:00:06;;;;;;;;;;;;;;;20.44;25.25;101592.13;5056263;28;19913;-64
2023/06/04 05:02:34;;;;;;;;;;;;;;;20.48;25.17;101587.88;5055376;28;20616;-64
2023/06/04 05:04:59;;;;;;;;;;;;;;;20.45;25.08;101593.81;5055643;28;19920;-65
2023/06/04 05:07:25;;;;;;;;;;;;;;;20.49;25.24;101595.84;5055648;28;19912;-64
2023/06/04 05:09:50;;;;;;;;;;;;;;;20.52;25.11;101604.63;5068185;28;19916;-64
2023/06/04 05:12:15;;;;;;;;;;;;;;;20.55;25.14;101604.16;5076113;28;19912;-65
2023/06/04 05:14:41;;;;;;;;;;;;;;;20.58;25.00;101600.94;5076315;28;19917;-64
2023/06/04 05:17:09;;;;;;;;;;;;;;;20.64;25.03;101605.53;5076104;28;19944;-64
2023/06/04 05:19:34;;;;;;;;;;;;;;;20.66;25.18;101604.22;5057851;28;19924;-64
2023/06/04 05:22:00;;;;;;;;;;;;;;;20.66;25.10;101600.66;5057619;28;19999;-65
2023/06/04 05:24:26;;;;;;;;;;;;;;;20.66;24.98;101606.13;5055959;28;19913;-64
2023/06/04 05:26:51;;;;;;;;;;;;;;;20.56;25.04;101608.53;5055899;28;20377;-64
2023/06/04 05:29:16;;;;;;;;;;;;;;;20.57;25.20;101596.56;5055875;28;19912;-64
2023/06/04 05:31:42;;;;;;;;;;;;;;;20.67;24.87;101607.78;5055597;28;19916;-64
2023/06/04 05:34:08;;;;;;;;;;;;;;;20.69;24.88;101619.31;5055694;28;19920;-65
2023/06/04 05:36:33;;;;;;;;;;;;;;;20.68;25.06;101613.00;5055713;28;19951;-64
2023/06/04 05:38:59;;;;;;;;;;;;;;;20.72;25.00;101616.09;5055558;28;19979;-64
2023/06/04 05:41:25;;;;;;;;;;;;;;;20.78;24.87;101617.91;5055634;28;19913;-65
2023/06/04 05:43:51;;;;;;;;;;;;;;;20.82;24.79;101619.09;5055622;28;19921;-64
2023/06/04 05:46:16;;;;;;;;;;;;;;;20.87;24.91;101618.38;5055768;28;19913;-65
2023/06/04 05:48:41;;;;;;;;;;;;;;;20.82;24.85;101618.25;5055704;28;19913;-65
2023/06/04 05:51:07;;;;;;;;;;;;;;;20.72;24.95;101621.56;5055576;28;19913;-65
2023/06/04 05:53:32;;;;;;;;;;;;;;;20.78;24.69;101628.84;5056083;28;19913;-64
2023/06/04 05:55:58;;;;;;;;;;;;;;;20.87;24.50;101624.69;5055179;28;19912;-65
2023/06/04 05:58:23;;;;;;;;;;;;;;;20.90;24.58;101619.84;5055172;28;19924;-65
2023/06/04 06:00:50;;;;;;;;;;;;;;;20.87;24.60;101624.69;5054586;28;19929;-65
2023/06/04 06:03:16;;;;;;;;;;;;;;;20.78;24.74;101631.56;5055347;28;20226;-65
2023/06/04 06:05:41;;;;;;;;;;;;;;;20.90;24.54;101628.03;5036842;28;19917;-64
2023/06/04 06:08:06;;;;;;;;;;;;;;;20.88;24.68;101622.81;5054680;28;20281;-64
2023/06/04 06:10:32;;;;;;;;;;;;;;;20.94;24.76;101626.50;5072919;28;20407;-65
2023/06/04 06:12:57;;;;;;;;;;;;;;;21.02;24.43;101635.19;5075097;28;19973;-65
2023/06/04 06:15:23;;;;;;;;;;;;;;;21.00;24.41;101636.47;5074764;28;20427;-64
2023/06/04 06:17:48;;;;;;;;;;;;;;;21.06;24.43;101632.78;5060202;28;19924;-64
2023/06/04 06:20:17;;;;;;;;;;;;;;;20.99;24.52;101635.66;5054534;28;19912;-64
2023/06/04 06:22:42;;;;;;;;;;;;;;;20.92;24.76;101628.63;5054359;28;20361;-65
2023/06/04 06:25:08;;;;;;;;;;;;;;;20.99;24.62;101632.09;5054693;28;19978;-64
2023/06/04 06:27:33;;;;;;;;;;;;;;;21.05;24.82;101629.22;5054169;28;20377;-63
2023/06/04 06:29:59;;;;;;;;;;;;;;;21.17;24.79;101639.34;5054660;28;19920;-64
2023/06/04 06:32:24;;;;;;;;;;;;;;;21.17;24.67;101629.28;5054342;28;19912;-64
2023/06/04 06:34:50;;;;;;;;;;;;;;;21.26;24.43;101627.00;5054038;28;19948;-64
2023/06/04 06:37:15;;;;;;;;;;;;;;;21.29;24.48;101625.72;5054162;28;20045;-65
2023/06/04 06:39:40;;;;;;;;;;;;;;;21.33;24.30;101635.91;5036166;28;20464;-65
2023/06/04 06:42:05;;;;;;;;;;;;;;;21.35;24.38;101622.03;5054292;28;19929;-65
2023/06/04 06:44:31;;;;;;;;;;;;;;;21.37;24.24;101633.53;5054213;28;19912;-65
2023/06/04 06:46:56;;;;;;;;;;;;;;;21.41;24.28;101632.84;5054291;28;19920;-65
2023/06/04 06:49:21;;;;;;;;;;;;;;;21.46;24.28;101629.41;5054099;28;19972;-65
2023/06/04 06:51:47;;;;;;;;;;;;;;;21.53;24.29;101637.50;5036177;28;19955;-64
2023/06/04 06:54:14;;;;;;;;;;;;;;;21.45;24.33;101635.94;5036217;28;20304;-65
2023/06/04 06:56:39;;;;;;;;;;;;;;;21.59;24.20;101636.56;5054088;28;20420;-65
2023/06/04 06:59:05;;;;;;;;;;;;;;;21.56;24.24;101634.28;5053857;28;19921;-65
2023/06/04 07:01:32;;;;;;;;;;;;;;;21.50;24.31;101638.81;5053121;28;20415;-65
2023/06/04 07:03:57;;;;;;;;;;;;;;;21.61;24.11;101637.97;5035781;28;19917;-64
2023/06/04 07:06:22;;;;;;;;;;;;;;;21.71;24.04;101639.25;5053669;28;19913;-64
2023/06/04 07:08:48;;;;;;;;;;;;;;;21.73;24.27;101643.44;5057974;28;19919;-66
2023/06/04 07:11:13;;;;;;;;;;;;;;;21.76;24.29;101637.47;5073956;28;19939;-64
2023/06/04 07:13:39;;;;;;;;;;;;;;;21.87;23.85;101640.44;5062574;28;20380;-64
2023/06/04 07:16:04;;;;;;;;;;;;;;;21.93;23.79;101639.47;5053848;28;19920;-64
2023/06/04 07:18:29;;;;;;;;;;;;;;;21.93;23.68;101642.22;5053492;28;19917;-64
2023/06/04 07:20:55;;;;;;;;;;;;;;;21.88;23.64;101639.34;5052712;28;19913;-65
2023/06/04 07:23:20;;;;;;;;;;;;;;;21.97;23.48;101633.28;5053327;28;20015;-65
2023/06/04 07:25:46;;;;;;;;;;;;;;;21.87;23.36;101630.31;5053536;28;19913;-65
2023/06/04 07:28:11;;;;;;;;;;;;;;;22.05;23.10;101632.09;5053344;28;19938;-64
2023/06/04 07:30:37;;;;;;;;;;;;;;;22.13;23.15;101628.94;5053341;28;19967;-65
2023/06/04 07:33:02;;;;;;;;;;;;;;;22.12;23.21;101621.84;5053208;28;19913;-65
2023/06/04 07:35:28;;;;;;;;;;;;;;;22.15;23.54;101617.78;5053252;28;19931;-65
2023/06/04 07:37:55;;;;;;;;;;;;;;;22.18;23.00;101629.06;5053520;28;20305;-65
2023/06/04 07:40:20;;;;;;;;;;;;;;;22.29;22.98;101621.06;5053156;28;19923;-65
2023/06/04 07:42:47;;;;;;;;;;;;;;;22.41;22.96;101617.22;5053104;28;19921;-65
2023/06/04 07:45:12;;;;;;;;;;;;;;;22.29;22.76;101613.72;5053252;28;19935;-65
2023/06/04 07:47:37;;;;;;;;;;;;;;;22.38;22.78;101615.00;5053062;28;19913;-65
2023/06/04 07:50:04;;;;;;;;;;;;;;;22.41;23.09;101613.66;5053306;28;19920;-65
2023/06/04 07:52:29;;;;;;;;;;;;;;;22.21;22.81;101582.06;5052989;28;19913;-64
2023/06/04 07:54:55;;;;;;;;;;;;;;;22.52;22.93;101620.97;5052908;28;19912;-64
2023/06/04 07:57:20;;;;;;;;;;;;;;;22.53;22.76;101613.59;5052911;28;20007;-64
2023/06/04 07:59:46;;;;;;;;;;;;;;;22.74;22.46;101618.38;5052383;28;19933;-64
2023/06/04 08:02:11;;;;;;;;;;;;;;;22.81;22.40;101618.22;5051570;28;19936;-64
2023/06/04 08:04:36;;;;;;;;;;;;;;;22.80;22.57;101611.06;5052914;28;19912;-64
2023/06/04 08:07:01;;;;;;;;;;;;;;;22.85;22.47;101618.56;5052680;28;20278;-64
2023/06/04 08:09:27;;;;;;;;;;;;;;;22.80;22.42;101608.34;5054709;28;19923;-64
2023/06/04 08:11:52;;;;;;;;;;;;;;;22.91;22.46;101609.34;5052580;28;19913;-64
2023/06/04 08:14:18;;;;;;;;;;;;;;;22.98;22.53;101607.28;5052588;28;19944;-64
2023/06/04 08:16:43;;;;;;;;;;;;;;;23.04;22.38;101600.00;5052562;28;19913;-64
2023/06/04 08:19:09;;;;;;;;;;;;;;;23.15;22.46;101608.13;5052431;28;20384;-64
2023/06/04 08:21:34;;;;;;;;;;;;;;;23.25;21.85;101604.69;5052547;28;19958;-64
2023/06/04 08:24:00;;;;;;;;;;;;;;;23.24;22.29;101605.81;5052711;28;19974;-64
2023/06/04 08:26:26;;;;;;;;;;;;;;;23.42;21.95;101601.97;5052431;28;19962;-64
2023/06/04 08:28:52;;;;;;;;;;;;;;;23.52;22.06;101599.34;5052401;28;19962;-64
2023/06/04 08:31:17;;;;;;;;;;;;;;;23.55;21.53;101600.75;5052635;28;20320;-64
2023/06/04 08:33:44;;;;;;;;;;;;;;;23.71;21.26;101585.34;5051282;28;19971;-64
2023/06/04 08:36:10;;;;;;;;;;;;;;;23.81;21.38;101598.38;5052382;28;20358;-64
2023/06/04 08:38:35;;;;;;;;;;;;;;;23.75;21.37;101589.22;5034363;28;19919;-64
2023/06/04 08:41:17;;;;;;;;;;;;;;;23.88;21.22;101585.31;5052138;28;19948;-65
2023/06/04 08:43:48;;;;;;;;;;;;;;;23.90;21.00;101588.63;5052499;28;19925;-65
2023/06/04 08:46:14;;;;;;;;;;;;;;;24.06;21.46;101587.72;5052254;28;19999;-65
2023/06/04 08:48:44;;;;;;;;;;;;;;;24.21;20.97;101595.31;5052654;28;19913;-65
2023/06/04 08:51:10;;;;;;;;;;;;;;;24.01;20.96;101598.63;5052150;28;20461;-65
2023/06/04 08:53:36;;;;;;;;;;;;;;;23.17;21.84;101564.03;5052261;28;19920;-64
2023/06/04 08:56:02;;;;;;;;;;;;;;;23.25;21.81;101599.22;5052063;28;19912;-64
2023/06/04 08:58:31;;;;;;;;;;;;;;;23.37;22.00;101590.91;5051841;28;20047;-64
2023/06/04 09:00:56;;;;;;;;;;;;;;;23.52;21.81;101587.56;5051660;28;19912;-65
2023/06/04 09:03:21;;;;;;;;;;;;;;;23.55;21.46;101589.78;5051883;28;20365;-65
2023/06/04 09:05:49;;;;;;;;;;;;;;;23.60;21.37;101595.34;5051932;28;19917;-64
2023/06/04 09:08:17;;;;;;;;;;;;;;;23.61;21.58;101582.47;5052051;28;19912;-64
2023/06/04 09:10:44;;;;;;;;;;;;;;;23.64;21.23;101595.66;5072061;28;19920;-65
2023/06/04 09:13:10;;;;;;;;;;;;;;;23.45;21.31;101595.13;5072016;28;20411;-65
2023/06/04 09:15:35;;;;;;;;;;;;;;;23.36;21.21;101600.22;5071948;28;19917;-65
2023/06/04 09:18:00;;;;;;;;;;;;;;;23.43;21.08;101586.34;5071839;28;19912;-65
2023/06/04 09:20:26;;;;;;;;;;;;;;;23.37;21.15;101594.47;5071774;28;19917;-64
2023/06/04 09:22:52;;;;;;;;;;;;;;;23.45;21.61;101582.25;5071700;28;19923;-64
2023/06/04 09:25:27;;;;;;;;;;;;;;;23.65;21.57;101583.63;5071733;28;19913;-65
2023/06/04 09:27:57;;;;;;;;;;;;;;;23.84;21.16;101592.41;5053915;28;19982;-64
2023/06/04 09:30:23;;;;;;;;;;;;;;;23.71;20.88;101586.16;5071761;28;20422;-64
2023/06/04 09:32:48;;;;;;;;;;;;;;;23.78;20.81;101584.06;5072113;28;19954;-64
2023/06/04 09:35:17;;;;;;;;;;;;;;;23.87;20.45;101578.19;5072019;28;19912;-64
2023/06/04 09:37:51;;;;;;;;;;;;;;;23.93;20.54;101569.75;5071598;28;19912;-64
2023/06/04 09:40:16;;;;;;;;;;;;;;;24.14;21.50;101569.97;5034663;28;20016;-64
2023/06/04 09:42:45;;;;;;;;;;;;;;;24.37;21.28;101560.63;5035074;28;19978;-64
2023/06/04 09:45:11;;;;;;;;;;;;;;;24.53;21.02;101565.19;5054701;28;19917;-64
2023/06/04 09:47:43;;;;;;;;;;;;;;;24.59;21.17;101577.06;5055196;28;19912;-64
2023/06/04 09:50:10;;;;;;;;;;;;;;;24.61;20.50;101560.28;5055472;28;19912;-64
2023/06/04 09:52:37;;;;;;;;;;;;;;;24.45;20.48;101559.31;5055249;28;19913;-64
2023/06/04 09:55:02;;;;;;;;;;;;;;;24.42;20.83;101560.66;5055378;28;19920;-65
2023/06/04 09:57:29;;;;;;;;;;;;;;;24.67;20.79;101562.84;5055048;28;19913;-64
2023/06/04 09:59:55;;;;;;;;;;;;;;;24.71;20.56;101561.22;5055145;28;19913;-64
2023/06/04 10:02:21;;;;;;;;;;;;;;;24.86;20.29;101568.75;5035550;28;19931;-64
2023/06/04 10:04:58;;;;;;;;;;;;;;;24.95;19.95;101562.78;5054814;28;19967;-64
2023/06/04 10:07:24;;;;;;;;;;;;;;;24.96;20.28;101554.25;5054723;28;19920;-65
2023/06/04 10:09:50;;;;;;;;;;;;;;;25.11;20.51;101554.38;5050253;28;19967;-64
2023/06/04 10:12:16;;;;;;;;;;;;;;;25.32;19.77;101551.78;5043008;28;19913;-66
2023/06/04 10:14:47;;;;;;;;;;;;;;;25.52;20.05;101553.84;5045382;28;19967;-65
2023/06/04 10:17:12;;;;;;;;;;;;;;;25.62;19.65;101550.28;5044997;28;19917;-65
2023/06/04 10:19:40;;;;;;;;;;;;;;;25.80;19.57;101546.25;5043334;28;19959;-65
2023/06/04 10:22:05;;;;;;;;;;;;;;;25.97;19.47;101551.56;5040101;28;19940;-64
2023/06/04 10:24:31;;;;;;;;;;;;;;;25.70;18.89;101541.50;5017059;28;20019;-64
2023/06/04 10:27:00;;;;;;;;;;;;;;;25.89;19.01;101544.59;5034572;28;20307;-65
2023/06/04 10:29:25;;;;;;;;;;;;;;;25.94;18.58;101547.41;5034637;28;19913;-64
2023/06/04 10:31:57;;;;;;;;;;;;;;;26.19;18.71;101535.66;5034332;28;19920;-64
2023/06/04 10:34:22;;;;;;;;;;;;;;;26.39;18.75;101543.13;5016513;28;20360;-65
2023/06/04 10:36:47;;;;;;;;;;;;;;;26.46;17.98;101545.59;5016864;28;19920;-65
2023/06/04 10:39:13;;;;;;;;;;;;;;;26.53;18.17;101543.38;5039474;28;19912;-65
2023/06/04 10:41:38;;;;;;;;;;;;;;;26.84;18.02;101529.66;5054255;28;19912;-65
2023/06/04 10:44:04;;;;;;;;;;;;;;;27.23;17.75;101529.84;5054080;28;19916;-65
2023/06/04 10:46:42;;;;;;;;;;;;;;;27.46;17.05;101526.78;5054017;28;19913;-64
2023/06/04 10:49:09;;;;;;;;;;;;;;;27.72;17.53;101536.59;5054206;28;19913;-65
2023/06/04 10:51:37;;;;;;;;;;;;;;;28.07;17.13;101539.47;5053943;28;19913;-65
2023/06/04 10:54:02;;;;;;;;;;;;;;;28.34;16.83;101531.56;5054282;28;19920;-65
2023/06/04 10:56:29;;;;;;;;;;;;;;;28.41;16.34;101536.75;5053708;28;19913;-64
2023/06/04 10:58:55;;;;;;;;;;;;;;;28.85;15.82;101535.84;5053992;28;20000;-66
2023/06/04 11:01:28;;;;;;;;;;;;;;;29.22;16.06;101528.88;5053419;28;19919;-64
2023/06/04 11:03:53;;;;;;;;;;;;;;;29.51;15.68;101526.03;5032671;28;20671;-65
2023/06/04 11:06:18;;;;;;;;;;;;;;;29.75;15.50;101529.91;5042920;28;20007;-65
2023/06/04 11:08:44;;;;;;;;;;;;;;;30.00;15.62;101526.78;5047126;28;19912;-64
2023/06/04 11:11:11;;;;;;;;;;;;;;;30.14;15.27;101529.63;5010941;28;20365;-65
2023/06/04 11:13:36;;;;;;;;;;;;;;;30.32;15.05;101522.44;5042205;28;20373;-65
2023/06/04 11:16:01;;;;;;;;;;;;;;;30.55;14.67;101522.63;5044357;28;19912;-65
2023/06/04 11:18:26;;;;;;;;;;;;;;;30.81;14.07;101529.41;5041725;28;20019;-66
2023/06/04 11:20:59;;;;;;;;;;;;;;;30.95;14.54;101525.84;5044500;28;19920;-65
2023/06/04 11:23:24;;;;;;;;;;;;;;;31.01;14.12;101528.22;5043987;28;19943;-65
2023/06/04 11:25:55;;;;;;;;;;;;;;;31.23;14.01;101521.16;5044089;28;19913;-66
2023/06/04 11:28:23;;;;;;;;;;;;;;;31.56;13.90;101529.41;5044457;28;19924;-65
2023/06/04 11:30:57;;;;;;;;;;;;;;;31.94;13.36;101529.09;5043817;28;19913;-65
2023/06/04 11:33:22;;;;;;;;;;;;;;;32.18;12.86;101521.34;5044168;28;20549;-63
2023/06/04 11:35:48;;;;;;;;;;;;;;;32.26;13.02;101518.94;5044656;28;19948;-64
2023/06/04 11:38:13;;;;;;;;;;;;;;;32.46;12.93;101518.44;5043799;28;19919;-63
2023/06/04 11:40:42;;;;;;;;;;;;;;;32.62;12.65;101518.09;5042586;28;20497;-63
2023/06/04 11:43:10;;;;;;;;;;;;;;;33.04;13.25;101518.63;5042593;28;19916;-64
2023/06/04 11:45:36;;;;;;;;;;;;;;;33.30;12.82;101508.44;5043681;28;19958;-63
2023/06/04 11:48:03;;;;;;;;;;;;;;;33.77;13.13;101501.50;5042433;28;19913;-63
2023/06/04 11:50:29;;;;;;;;;;;;;;;34.37;13.08;101500.69;5042488;28;20296;-63
2023/06/04 11:52:54;;;;;;;;;;;;;;;34.43;12.05;101498.56;5043868;28;19991;-63
2023/06/04 11:55:23;;;;;;;;;;;;;;;34.25;12.12;101503.34;5046535;28;19917;-62
2023/06/04 11:57:49;;;;;;;;;;;;;;;34.18;11.82;101515.00;5042980;28;20039;-63
2023/06/04 12:00:15;;;;;;;;;;;;;;;34.26;11.10;101502.19;5041545;28;19920;-64
2023/06/04 12:02:54;;;;;;;;;;;;;;;34.51;11.59;101497.75;5042136;28;19925;-64
2023/06/04 12:05:20;;;;;;;;;;;;;;;34.57;11.49;101498.38;5043239;28;20368;-64
2023/06/04 12:07:47;;;;;;;;;;;;;;;34.39;11.92;101492.81;5042338;28;19958;-64
2023/06/04 12:10:13;;;;;;;;;;;;;;;34.61;11.29;101494.56;5048991;28;20285;-64
2023/06/04 12:12:40;;;;;;;;;;;;;;;34.73;11.39;101498.69;5041471;28;19913;-64
2023/06/04 12:15:07;;;;;;;;;;;;;;;34.54;11.17;101497.06;5042792;28;19913;-64
2023/06/04 12:17:32;;;;;;;;;;;;;;;34.81;10.84;101489.47;5043233;28;19913;-63
2023/06/04 12:19:58;;;;;;;;;;;;;;;35.07;11.64;101490.16;5040077;28;20004;-64
2023/06/04 12:22:24;;;;;;;;;;;;;;;35.76;11.22;101490.13;5041753;28;20358;-64
2023/06/04 12:24:53;;;;;;;;;;;;;;;36.03;11.03;101494.34;5041756;28;19913;-62
2023/06/04 12:27:18;;;;;;;;;;;;;;;36.46;10.71;101484.75;5043465;28;20454;-64
2023/06/04 12:29:54;;;;;;;;;;;;;;;36.88;10.85;101493.00;5041968;28;19921;-64